Time;durP1;ratioP1;P1;durP2;ratioP2;P2;SDS_P1;SDS_P2;PMS_P1;PMS_P2;Temp;Humidity;BMP_temperature;BMP_pressure;BME280_temperature;BME280_humidity;BME280_pressure;Samples;Min_cycle;Max_cycle;Signal;HPM_P1;HPM_P2
2023/07/27 00:01:44;;;;;;;1.02;1.02;;;17.00;99.90;;;;;;5035012;28;20227;-74
2023/07/27 00:04:11;;;;;;;1.15;1.13;;;16.90;99.90;;;;;;5034377;28;20286;-74
2023/07/27 00:06:39;;;;;;;0.95;0.95;;;16.90;99.90;;;;;;5037339;28;20199;-73
2023/07/27 00:09:06;;;;;;;1.60;1.50;;;16.90;99.90;;;;;;5033461;28;20258;-72
2023/07/27 00:11:33;;;;;;;1.30;1.23;;;16.80;99.90;;;;;;5036922;28;20268;-73
2023/07/27 00:14:00;;;;;;;1.63;1.20;;;16.80;99.90;;;;;;5037788;28;20736;-73
2023/07/27 00:16:27;;;;;;;1.30;1.20;;;16.80;99.90;;;;;;5035954;28;20276;-76
2023/07/27 00:18:54;;;;;;;1.10;1.00;;;16.70;99.90;;;;;;5038005;28;20249;-75
2023/07/27 00:21:22;;;;;;;1.30;1.20;;;16.70;99.90;;;;;;5035388;28;20281;-73
2023/07/27 00:23:50;;;;;;;1.00;1.00;;;16.80;99.90;;;;;;5034001;28;20207;-74
2023/07/27 00:26:18;;;;;;;1.70;1.17;;;16.60;99.90;;;;;;5039873;28;20230;-73
2023/07/27 00:28:45;;;;;;;1.40;1.30;;;16.50;99.90;;;;;;5037898;28;20758;-73
2023/07/27 00:31:11;;;;;;;1.23;1.17;;;16.40;99.90;;;;;;5035070;28;20333;-75
2023/07/27 00:33:38;;;;;;;1.00;1.00;;;16.40;99.90;;;;;;5034074;28;20208;-75
2023/07/27 00:36:06;;;;;;;1.27;1.17;;;16.30;99.90;;;;;;5031699;28;20251;-74
2023/07/27 00:38:32;;;;;;;1.30;1.20;;;16.30;99.90;;;;;;5036116;28;20207;-77
2023/07/27 00:41:01;;;;;;;1.38;1.27;;;16.40;99.90;;;;;;5031941;28;20246;-73
2023/07/27 00:43:28;;;;;;;1.30;1.20;;;16.50;99.90;;;;;;5037504;28;20777;-72
2023/07/27 00:45:56;;;;;;;1.40;1.30;;;16.60;99.90;;;;;;5037363;28;20839;-74
2023/07/27 00:48:23;;;;;;;1.73;1.38;;;16.60;99.90;;;;;;5038044;28;20199;-73
2023/07/27 00:50:52;;;;;;;1.17;1.10;;;16.60;99.90;;;;;;5032869;28;20265;-75
2023/07/27 00:53:19;;;;;;;1.10;1.10;;;16.60;99.90;;;;;;5036632;28;20248;-74
2023/07/27 00:55:47;;;;;;;1.23;1.13;;;16.70;99.90;;;;;;5035211;28;20264;-72
2023/07/27 00:58:15;;;;;;;1.20;1.10;;;16.60;99.90;;;;;;5035538;28;20206;-72
2023/07/27 01:00:43;;;;;;;2.22;1.50;;;16.50;99.90;;;;;;5031639;28;20752;-74
2023/07/27 01:03:11;;;;;;;1.00;1.00;;;16.50;99.90;;;;;;5037480;28;20266;-75
2023/07/27 01:05:38;;;;;;;1.40;1.30;;;16.40;99.90;;;;;;5032391;28;20265;-77
2023/07/27 01:08:05;;;;;;;1.48;1.38;;;16.40;99.90;;;;;;5037110;28;20195;-76
2023/07/27 01:10:47;;;;;;;1.30;1.20;;;16.40;99.90;;;;;;5031039;28;20289;-75
2023/07/27 01:13:26;;;;;;;1.13;1.13;;;16.40;99.90;;;;;;5029158;28;20207;-75
2023/07/27 01:15:59;;;;;;;1.20;1.10;;;16.40;99.90;;;;;;5030173;28;20215;-73
2023/07/27 01:18:32;;;;;;;1.95;1.10;;;16.40;99.90;;;;;;5028789;28;20199;-75
2023/07/27 01:21:08;;;;;;;1.15;1.10;;;16.40;99.90;;;;;;5034111;28;20222;-75
2023/07/27 01:24:07;;;;;;;0.82;0.82;;;16.40;99.90;;;;;;5036548;28;20714;-76
2023/07/27 01:26:56;;;;;;;1.27;1.20;;;16.40;99.90;;;;;;5028777;28;20204;-75
2023/07/27 01:30:05;;;;;;;1.17;1.08;;;16.30;99.90;;;;;;5028688;28;20203;-73
2023/07/27 01:32:36;;;;;;;1.20;1.20;;;16.30;99.90;;;;;;4985677;28;20210;-74
2023/07/27 01:35:06;;;;;;;1.08;1.08;;;16.20;99.90;;;;;;5040699;28;20766;-73
2023/07/27 01:37:34;;;;;;;1.08;1.08;;;16.20;99.90;;;;;;5040816;28;20203;-74
2023/07/27 01:40:02;;;;;;;1.00;1.00;;;16.10;99.90;;;;;;5041691;28;20227;-74
2023/07/27 01:42:30;;;;;;;1.45;1.35;;;16.10;99.90;;;;;;5034819;28;20230;-74
2023/07/27 01:44:58;;;;;;;1.35;1.23;;;16.10;99.90;;;;;;5035599;28;20265;-76
2023/07/27 01:47:27;;;;;;;1.30;1.20;;;16.10;99.90;;;;;;5039048;28;20211;-75
2023/07/27 01:49:56;;;;;;;2.08;1.25;;;16.00;99.90;;;;;;5038674;28;20230;-76
2023/07/27 01:52:24;;;;;;;1.08;1.08;;;15.90;99.90;;;;;;5037967;28;20207;-75
2023/07/27 01:54:53;;;;;;;1.80;1.70;;;15.90;99.90;;;;;;5036493;28;20231;-75
2023/07/27 01:57:20;;;;;;;1.17;1.17;;;15.90;99.90;;;;;;5036367;28;20281;-76
2023/07/27 01:59:48;;;;;;;1.10;1.10;;;15.90;99.90;;;;;;5036140;28;20254;-77
2023/07/27 02:02:16;;;;;;;1.05;1.05;;;15.90;99.90;;;;;;5035792;28;20211;-75
2023/07/27 02:04:44;;;;;;;1.48;1.38;;;15.90;99.90;;;;;;5035693;28;20319;-76
2023/07/27 02:07:12;;;;;;;1.20;1.10;;;15.90;99.90;;;;;;5037315;28;20211;-75
2023/07/27 02:09:39;;;;;;;1.25;1.23;;;15.80;99.90;;;;;;5034091;28;20260;-74
2023/07/27 02:12:16;;;;;;;1.38;1.27;;;15.80;99.90;;;;;;5037834;28;20826;-74
2023/07/27 02:14:50;;;;;;;1.50;1.40;;;15.70;99.90;;;;;;5036027;28;20276;-74
2023/07/27 02:17:24;;;;;;;1.13;1.13;;;15.80;99.90;;;;;;5037129;28;20905;-76
2023/07/27 02:19:57;;;;;;;1.50;1.30;;;15.70;99.90;;;;;;5035140;28;20199;-74
2023/07/27 02:22:26;;;;;;;1.40;1.30;;;15.80;99.90;;;;;;5036426;28;20199;-76
2023/07/27 02:24:53;;;;;;;2.30;1.48;;;15.70;99.90;;;;;;5037707;28;20242;-76
2023/07/27 02:27:20;;;;;;;1.30;1.20;;;15.70;99.90;;;;;;5037006;28;20207;-74
2023/07/27 02:29:47;;;;;;;1.50;1.40;;;15.60;99.90;;;;;;5037098;28;20207;-74
2023/07/27 02:32:14;;;;;;;1.50;1.40;;;15.60;99.90;;;;;;5037337;28;20204;-76
2023/07/27 02:34:41;;;;;;;1.45;1.35;;;15.50;99.90;;;;;;5032829;28;20743;-74
2023/07/27 02:37:08;;;;;;;1.30;1.30;;;15.50;99.90;;;;;;5033661;28;20260;-76
2023/07/27 02:39:36;;;;;;;1.40;1.30;;;15.50;99.90;;;;;;5034430;28;20226;-75
2023/07/27 02:42:04;;;;;;;1.50;1.40;;;15.40;99.90;;;;;;5035302;28;20664;-75
2023/07/27 02:44:31;;;;;;;1.50;1.40;;;15.40;99.90;;;;;;5038187;28;20199;-74
2023/07/27 02:46:58;;;;;;;1.20;1.10;;;15.40;99.90;;;;;;5037893;28;20248;-74
2023/07/27 02:49:25;;;;;;;1.60;1.50;;;15.50;99.90;;;;;;5031585;28;20233;-75
2023/07/27 02:51:52;;;;;;;1.65;1.55;;;15.60;99.90;;;;;;5035340;28;20308;-76
2023/07/27 02:54:18;;;;;;;1.45;1.35;;;15.70;99.90;;;;;;5033604;28;20238;-77
2023/07/27 02:56:48;;;;;;;2.22;1.38;;;15.70;99.90;;;;;;5033932;28;20243;-75
2023/07/27 02:59:15;;;;;;;1.67;1.58;;;15.60;99.90;;;;;;5032764;28;20228;-74
2023/07/27 03:01:42;;;;;;;1.30;1.20;;;15.50;99.90;;;;;;5037167;28;20940;-73
2023/07/27 03:04:09;;;;;;;1.33;1.23;;;15.50;99.90;;;;;;5035944;28;20230;-74
2023/07/27 03:06:38;;;;;;;1.45;1.35;;;15.50;99.90;;;;;;5032250;28;20227;-74
2023/07/27 03:09:05;;;;;;;1.67;1.58;;;15.60;99.90;;;;;;5034484;28;20295;-73
2023/07/27 03:11:32;;;;;;;1.38;1.27;;;15.60;99.90;;;;;;5032842;28;20251;-73
2023/07/27 03:14:00;;;;;;;1.15;1.15;;;15.50;99.90;;;;;;5034200;28;20641;-73
2023/07/27 03:16:27;;;;;;;1.40;1.30;;;15.50;99.90;;;;;;5035563;28;20319;-76
2023/07/27 03:18:54;;;;;;;1.50;1.40;;;15.50;99.90;;;;;;5034151;28;20669;-75
2023/07/27 03:21:21;;;;;;;1.45;1.35;;;15.50;99.90;;;;;;5032937;28;20266;-74
2023/07/27 03:23:48;;;;;;;1.63;1.52;;;15.40;99.90;;;;;;5035663;28;20222;-74
2023/07/27 03:26:16;;;;;;;1.40;1.30;;;15.40;99.90;;;;;;5034638;28;20715;-74
2023/07/27 03:28:43;;;;;;;1.42;1.33;;;15.30;99.90;;;;;;5031273;28;20204;-74
2023/07/27 03:31:18;;;;;;;1.50;1.40;;;15.30;99.90;;;;;;5034563;28;20219;-76
2023/07/27 03:33:45;;;;;;;1.35;1.25;;;15.30;99.90;;;;;;5032907;28;20191;-74
2023/07/27 03:36:12;;;;;;;1.25;1.23;;;15.20;99.90;;;;;;5035683;28;20334;-74
2023/07/27 03:38:41;;;;;;;1.38;1.27;;;15.30;99.90;;;;;;5035702;28;20213;-75
2023/07/27 03:41:08;;;;;;;1.50;1.40;;;15.30;99.90;;;;;;5034293;28;20288;-74
2023/07/27 03:43:35;;;;;;;1.45;1.35;;;15.30;99.90;;;;;;5031612;28;20291;-76
2023/07/27 03:46:02;;;;;;;1.25;1.25;;;15.30;99.90;;;;;;5033877;28;20693;-74
2023/07/27 03:48:30;;;;;;;1.75;1.65;;;15.30;99.90;;;;;;5035707;28;20253;-74
2023/07/27 03:51:00;;;;;;;1.40;1.30;;;15.30;99.90;;;;;;5031772;28;20255;-76
2023/07/27 03:53:28;;;;;;;1.60;1.50;;;15.30;99.90;;;;;;5036415;28;20261;-76
2023/07/27 03:55:55;;;;;;;1.80;1.70;;;15.30;99.90;;;;;;5036508;28;20831;-74
2023/07/27 03:58:22;;;;;;;1.45;1.35;;;15.40;99.90;;;;;;5036792;28;20671;-76
2023/07/27 04:00:49;;;;;;;1.60;1.50;;;15.30;99.90;;;;;;5028682;28;20232;-76
2023/07/27 04:03:16;;;;;;;1.40;1.30;;;15.30;99.90;;;;;;5035380;28;20230;-79
2023/07/27 04:05:45;;;;;;;1.50;1.40;;;15.40;99.90;;;;;;5035914;28;20207;-74
2023/07/27 04:08:12;;;;;;;1.52;1.42;;;15.40;99.90;;;;;;5036787;28;20207;-75
2023/07/27 04:10:41;;;;;;;1.67;1.58;;;15.30;99.90;;;;;;5036013;28;20250;-75
2023/07/27 04:13:08;;;;;;;1.48;1.38;;;15.40;99.90;;;;;;5033333;28;20950;-76
2023/07/27 04:15:37;;;;;;;1.52;1.42;;;15.40;99.90;;;;;;5035164;28;20632;-73
2023/07/27 04:18:04;;;;;;;2.40;1.45;;;15.30;99.90;;;;;;5032183;28;20774;-75
2023/07/27 04:20:31;;;;;;;1.27;1.20;;;15.30;99.90;;;;;;5032549;28;20226;-74
2023/07/27 04:23:00;;;;;;;1.50;1.40;;;15.30;99.90;;;;;;5034362;28;20199;-76
2023/07/27 04:25:27;;;;;;;1.48;1.38;;;15.20;99.90;;;;;;5032151;28;20203;-77
2023/07/27 04:27:54;;;;;;;1.63;1.52;;;15.30;99.90;;;;;;5035098;28;20199;-80
2023/07/27 04:30:21;;;;;;;1.80;1.70;;;15.40;99.90;;;;;;5035386;28;20690;-76
2023/07/27 04:32:48;;;;;;;1.30;1.20;;;15.60;99.90;;;;;;5032463;28;20238;-79
2023/07/27 04:35:15;;;;;;;1.50;1.40;;;15.70;99.90;;;;;;5031065;28;20230;-75
2023/07/27 04:37:42;;;;;;;1.55;1.45;;;15.80;99.90;;;;;;5036323;28;20807;-73
2023/07/27 04:40:13;;;;;;;2.13;1.50;;;16.00;99.90;;;;;;5033036;28;20649;-77
2023/07/27 04:42:40;;;;;;;1.60;1.45;;;16.20;99.90;;;;;;5032154;28;20195;-75
2023/07/27 04:45:08;;;;;;;1.70;1.60;;;16.40;99.90;;;;;;5032025;28;20649;-76
2023/07/27 04:47:35;;;;;;;1.65;1.55;;;16.50;99.90;;;;;;5031556;28;20248;-75
2023/07/27 04:50:03;;;;;;;2.03;1.83;;;16.60;99.90;;;;;;5031124;28;20304;-76
2023/07/27 04:52:30;;;;;;;1.75;1.50;;;16.60;99.90;;;;;;5033257;28;20857;-74
2023/07/27 04:54:57;;;;;;;1.48;1.38;;;16.60;99.90;;;;;;5029622;28;20215;-75
2023/07/27 04:57:25;;;;;;;1.58;1.48;;;16.50;99.90;;;;;;5030748;28;20277;-78
2023/07/27 04:59:52;;;;;;;3.25;1.73;;;16.40;99.90;;;;;;5031667;28;20203;-76
2023/07/27 05:02:19;;;;;;;1.60;1.50;;;16.40;99.90;;;;;;5031228;28;20202;-76
2023/07/27 05:04:46;;;;;;;2.53;1.55;;;16.60;99.90;;;;;;5033871;28;20238;-77
2023/07/27 05:07:13;;;;;;;1.50;1.40;;;17.00;99.90;;;;;;5031933;28;20207;-75
2023/07/27 05:09:40;;;;;;;1.50;1.40;;;17.30;99.90;;;;;;5035797;28;20206;-75
2023/07/27 05:12:07;;;;;;;1.35;1.25;;;17.60;99.90;;;;;;5039488;28;20783;-74
2023/07/27 05:14:36;;;;;;;1.48;1.38;;;17.70;99.90;;;;;;5039500;28;20219;-74
2023/07/27 05:17:03;;;;;;;1.33;1.23;;;17.70;99.90;;;;;;5038292;28;20218;-75
2023/07/27 05:19:30;;;;;;;1.50;1.40;;;17.50;99.90;;;;;;5044280;28;20206;-75
2023/07/27 05:21:56;;;;;;;1.45;1.35;;;17.50;99.90;;;;;;5042795;28;20820;-74
2023/07/27 05:24:23;;;;;;;1.40;1.30;;;17.60;99.90;;;;;;5038164;28;20198;-74
2023/07/27 05:26:50;;;;;;;1.50;1.40;;;17.60;99.90;;;;;;5040502;28;20760;-74
2023/07/27 05:29:17;;;;;;;1.52;1.40;;;17.40;99.90;;;;;;5040527;28;20227;-75
2023/07/27 05:31:47;;;;;;;1.55;1.45;;;17.30;99.90;;;;;;5038176;28;20300;-77
2023/07/27 05:34:14;;;;;;;2.17;1.48;;;17.50;99.90;;;;;;5039340;28;20289;-73
2023/07/27 05:36:41;;;;;;;1.50;1.40;;;17.60;99.90;;;;;;5037927;28;20701;-75
2023/07/27 05:39:08;;;;;;;2.53;1.65;;;18.00;99.90;;;;;;5033833;28;20238;-76
2023/07/27 05:41:35;;;;;;;1.60;1.50;;;18.10;99.90;;;;;;5037251;28;20384;-73
2023/07/27 05:44:02;;;;;;;1.77;1.67;;;18.20;99.90;;;;;;5033074;28;20237;-75
2023/07/27 05:46:29;;;;;;;2.10;1.73;;;18.10;99.90;;;;;;5036463;28;20278;-74
2023/07/27 05:48:57;;;;;;;1.80;1.70;;;18.00;99.90;;;;;;5038244;28;20677;-74
2023/07/27 05:51:24;;;;;;;1.88;1.50;;;17.90;99.90;;;;;;5039068;28;20276;-74
2023/07/27 05:53:51;;;;;;;1.60;1.50;;;17.80;99.90;;;;;;5036918;28;20258;-74
2023/07/27 05:56:18;;;;;;;1.60;1.50;;;17.70;99.90;;;;;;5040643;28;20219;-75
2023/07/27 05:58:45;;;;;;;1.88;1.42;;;17.70;99.90;;;;;;5037505;28;20204;-75
2023/07/27 06:01:13;;;;;;;1.63;1.50;;;17.60;99.90;;;;;;5038776;28;20226;-73
2023/07/27 06:03:40;;;;;;;1.40;1.30;;;17.50;99.90;;;;;;5039895;28;20210;-76
2023/07/27 06:06:09;;;;;;;1.58;1.48;;;17.40;99.90;;;;;;5040527;28;20226;-74
2023/07/27 06:08:36;;;;;;;1.65;1.30;;;17.30;99.90;;;;;;5040096;28;20199;-74
2023/07/27 06:11:04;;;;;;;1.80;1.70;;;17.30;99.90;;;;;;5041748;28;20320;-75
2023/07/27 06:13:31;;;;;;;1.58;1.48;;;17.30;99.90;;;;;;5041595;28;20200;-74
2023/07/27 06:15:58;;;;;;;1.65;1.55;;;17.30;99.90;;;;;;5037707;28;20211;-75
2023/07/27 06:18:25;;;;;;;2.03;1.60;;;17.30;99.90;;;;;;5039858;28;20219;-74
2023/07/27 06:20:52;;;;;;;2.85;1.58;;;17.30;99.90;;;;;;5041421;28;20247;-74
2023/07/27 06:23:21;;;;;;;2.10;1.90;;;17.30;99.90;;;;;;5043423;28;20203;-75
2023/07/27 06:25:49;;;;;;;1.92;1.70;;;17.30;99.90;;;;;;5038160;28;20223;-75
2023/07/27 06:28:16;;;;;;;2.38;1.70;;;17.20;99.90;;;;;;5041162;28;20198;-74
2023/07/27 06:30:45;;;;;;;2.47;1.50;;;17.10;99.90;;;;;;5041957;28;20705;-77
2023/07/27 06:33:12;;;;;;;1.73;1.63;;;16.90;99.90;;;;;;5038492;28;20234;-77
2023/07/27 06:35:39;;;;;;;1.77;1.48;;;16.80;99.90;;;;;;5033125;28;20248;-75
2023/07/27 06:38:06;;;;;;;1.85;1.75;;;16.80;99.90;;;;;;5037702;28;20242;-74
2023/07/27 06:40:34;;;;;;;1.80;1.48;;;16.90;99.90;;;;;;5033585;28;20215;-74
2023/07/27 06:43:01;;;;;;;1.50;1.40;;;17.00;99.90;;;;;;5034274;28;21000;-74
2023/07/27 06:45:28;;;;;;;1.85;1.60;;;17.10;99.90;;;;;;5036590;28;20252;-75
2023/07/27 06:47:56;;;;;;;1.75;1.60;;;17.20;99.90;;;;;;5039137;28;20203;-74
2023/07/27 06:50:23;;;;;;;1.92;1.42;;;17.20;99.90;;;;;;5029559;28;20229;-74
2023/07/27 06:52:49;;;;;;;1.48;1.38;;;17.30;99.90;;;;;;5031824;28;20246;-73
2023/07/27 06:55:17;;;;;;;2.03;1.70;;;17.60;99.90;;;;;;5033580;28;20203;-75
2023/07/27 06:57:46;;;;;;;3.05;1.77;;;17.80;99.90;;;;;;5034852;28;20211;-74
2023/07/27 07:00:14;;;;;;;1.90;1.63;;;18.00;99.90;;;;;;5032330;28;20222;-73
2023/07/27 07:02:42;;;;;;;1.73;1.63;;;18.30;99.90;;;;;;5035497;28;20211;-74
2023/07/27 07:05:09;;;;;;;2.10;1.77;;;18.50;99.90;;;;;;5029698;28;20306;-73
2023/07/27 07:07:36;;;;;;;2.60;1.92;;;18.50;99.90;;;;;;5030884;28;20199;-74
2023/07/27 07:10:03;;;;;;;2.20;2.00;;;18.50;99.90;;;;;;5029673;28;20302;-75
2023/07/27 07:12:30;;;;;;;2.20;1.60;;;18.20;99.90;;;;;;5032331;28;20281;-73
2023/07/27 07:14:59;;;;;;;2.15;1.60;;;18.00;99.90;;;;;;5034660;28;20215;-74
2023/07/27 07:17:26;;;;;;;2.00;1.90;;;18.00;99.90;;;;;;5032901;28;20718;-73
2023/07/27 07:19:53;;;;;;;1.50;1.40;;;17.90;99.90;;;;;;5031411;28;20202;-73
2023/07/27 07:22:20;;;;;;;2.05;1.80;;;17.90;99.90;;;;;;5030184;28;20249;-73
2023/07/27 07:24:47;;;;;;;2.15;1.65;;;18.10;99.90;;;;;;5032116;28;20248;-75
2023/07/27 07:27:14;;;;;;;2.85;1.90;;;18.20;99.90;;;;;;5034585;28;20191;-74
2023/07/27 07:29:41;;;;;;;2.03;1.83;;;18.30;99.90;;;;;;5033511;28;20868;-74
2023/07/27 07:32:10;;;;;;;1.60;1.50;;;18.30;99.90;;;;;;5031105;28;20837;-73
2023/07/27 07:34:37;;;;;;;1.63;1.52;;;18.50;99.90;;;;;;5032734;28;20894;-75
2023/07/27 07:37:04;;;;;;;1.80;1.70;;;18.80;99.90;;;;;;5035953;28;20223;-73
2023/07/27 07:39:31;;;;;;;1.95;1.60;;;18.70;99.90;;;;;;5028688;28;20793;-74
2023/07/27 07:41:59;;;;;;;2.97;2.00;;;19.20;99.90;;;;;;5034202;28;20305;-75
2023/07/27 07:44:26;;;;;;;2.47;1.85;;;19.70;99.90;;;;;;5035487;28;20282;-75
2023/07/27 07:46:53;;;;;;;1.92;1.63;;;19.90;99.90;;;;;;5035008;28;20238;-75
2023/07/27 07:49:25;;;;;;;1.70;1.60;;;20.10;99.90;;;;;;5032722;28;20211;-76
2023/07/27 07:51:52;;;;;;;3.05;2.00;;;20.20;99.90;;;;;;5035162;28;20276;-73
2023/07/27 07:54:19;;;;;;;1.90;1.80;;;20.10;99.90;;;;;;5033754;28;20615;-73
2023/07/27 07:56:47;;;;;;;1.75;1.65;;;20.20;99.90;;;;;;5035663;28;20202;-75
2023/07/27 07:59:14;;;;;;;1.80;1.70;;;19.90;99.90;;;;;;5035116;28;20231;-75
2023/07/27 08:01:41;;;;;;;1.80;1.70;;;19.50;99.90;;;;;;5044097;28;20219;-74
2023/07/27 08:04:08;;;;;;;1.52;1.42;;;19.30;99.90;;;;;;5037638;28;21103;-75
2023/07/27 08:06:37;;;;;;;3.53;1.75;;;19.20;99.90;;;;;;5042718;28;20204;-75
2023/07/27 08:09:05;;;;;;;2.05;1.95;;;19.20;99.90;;;;;;5032207;28;21040;-74
2023/07/27 08:11:33;;;;;;;1.67;1.58;;;19.10;99.90;;;;;;5029711;28;20221;-75
2023/07/27 08:14:02;;;;;;;1.55;1.45;;;19.00;99.90;;;;;;5029815;28;20207;-74
2023/07/27 08:16:29;;;;;;;1.95;1.77;;;19.20;99.90;;;;;;5029373;28;20597;-72
2023/07/27 08:18:56;;;;;;;1.92;1.75;;;19.30;99.90;;;;;;5030255;28;20219;-72
2023/07/27 08:21:23;;;;;;;2.50;1.50;;;19.40;99.90;;;;;;5029769;28;20397;-74
2023/07/27 08:23:52;;;;;;;1.90;1.80;;;19.40;99.90;;;;;;5032422;28;20207;-73
2023/07/27 08:26:19;;;;;;;1.77;1.67;;;20.00;99.90;;;;;;5030792;28;20227;-73
2023/07/27 08:28:47;;;;;;;1.50;1.40;;;20.40;99.90;;;;;;5028945;28;20786;-73
2023/07/27 08:31:14;;;;;;;2.53;1.73;;;20.70;99.90;;;;;;5031598;28;20219;-73
2023/07/27 08:33:41;;;;;;;2.03;1.83;;;20.60;99.90;;;;;;5028849;28;20251;-74
2023/07/27 08:36:08;;;;;;;1.80;1.70;;;20.40;99.90;;;;;;5031952;28;20806;-74
2023/07/27 08:38:35;;;;;;;1.70;1.60;;;20.40;99.90;;;;;;5032629;28;20215;-74
2023/07/27 08:41:04;;;;;;;1.80;1.70;;;20.60;99.90;;;;;;5027693;28;20225;-75
2023/07/27 08:43:31;;;;;;;1.80;1.60;;;20.70;99.90;;;;;;5027352;28;20658;-72
2023/07/27 08:45:59;;;;;;;1.80;1.70;;;20.70;99.90;;;;;;5028565;28;20603;-74
2023/07/27 08:48:28;;;;;;;2.60;1.70;;;20.60;99.90;;;;;;5024861;28;20210;-74
2023/07/27 08:50:57;;;;;;;1.70;1.60;;;20.40;99.90;;;;;;5030342;28;20268;-75
2023/07/27 08:53:25;;;;;;;1.67;1.58;;;20.30;99.90;;;;;;5029199;28;20211;-76
2023/07/27 08:55:52;;;;;;;1.88;1.77;;;20.20;99.90;;;;;;5029678;28;20285;-76
2023/07/27 08:58:21;;;;;;;2.33;1.88;;;20.10;99.90;;;;;;5030305;28;20222;-72
2023/07/27 09:00:48;;;;;;;1.90;1.80;;;20.10;99.90;;;;;;5028400;28;20234;-74
2023/07/27 09:03:15;;;;;;;1.55;1.45;;;20.10;99.90;;;;;;5027794;28;20280;-75
2023/07/27 09:05:43;;;;;;;1.60;1.50;;;20.30;99.90;;;;;;5028110;28;20231;-75
2023/07/27 09:08:11;;;;;;;1.60;1.50;;;20.40;99.90;;;;;;5029690;28;20291;-75
2023/07/27 09:10:39;;;;;;;1.77;1.50;;;20.50;99.90;;;;;;5026680;28;20312;-75
2023/07/27 09:13:06;;;;;;;1.80;1.70;;;20.90;99.90;;;;;;5024222;28;20290;-74
2023/07/27 09:15:36;;;;;;;1.80;1.70;;;21.00;99.90;;;;;;5026535;28;20222;-74
2023/07/27 09:18:10;;;;;;;2.15;1.70;;;21.40;99.90;;;;;;5029221;28;20229;-75
2023/07/27 09:20:37;;;;;;;1.70;1.60;;;22.10;99.90;;;;;;5032836;28;20228;-74
2023/07/27 09:23:04;;;;;;;2.20;2.00;;;22.20;99.90;;;;;;5030678;28;20233;-74
2023/07/27 09:25:31;;;;;;;2.28;1.75;;;22.00;99.90;;;;;;5027813;28;20297;-75
2023/07/27 09:27:58;;;;;;;1.80;1.70;;;21.60;99.90;;;;;;5028455;28;20223;-74
2023/07/27 09:30:26;;;;;;;1.83;1.65;;;21.30;99.90;;;;;;5029757;28;20226;-74
2023/07/27 09:32:55;;;;;;;2.08;1.75;;;21.10;99.90;;;;;;5022669;28;20958;-75
2023/07/27 09:35:23;;;;;;;1.60;1.50;;;21.00;99.90;;;;;;5026865;28;20204;-73
2023/07/27 09:37:52;;;;;;;1.65;1.55;;;21.30;99.90;;;;;;5026996;28;20288;-76
2023/07/27 09:40:21;;;;;;;1.90;1.70;;;21.70;99.90;;;;;;5028980;28;20223;-74
2023/07/27 09:42:48;;;;;;;2.13;1.92;;;21.90;99.90;;;;;;5024857;28;20199;-74
2023/07/27 09:45:15;;;;;;;2.63;1.80;;;22.10;99.90;;;;;;5023890;28;20252;-74
2023/07/27 09:47:43;;;;;;;1.60;1.50;;;22.10;99.90;;;;;;5023348;28;20191;-74
2023/07/27 09:50:11;;;;;;;1.70;1.60;;;22.00;99.90;;;;;;5028866;28;20219;-74
2023/07/27 09:52:40;;;;;;;2.25;2.05;;;22.00;99.90;;;;;;5028806;28;21547;-73
2023/07/27 09:55:07;;;;;;;1.65;1.50;;;22.40;99.90;;;;;;5029577;28;20204;-73
2023/07/27 09:57:34;;;;;;;1.80;1.70;;;22.50;99.90;;;;;;5029893;28;20204;-75
2023/07/27 10:00:05;;;;;;;1.65;1.55;;;22.30;99.90;;;;;;5024775;28;20206;-75
2023/07/27 10:02:34;;;;;;;2.22;2.03;;;22.30;99.90;;;;;;5029182;28;20230;-74
2023/07/27 10:05:04;;;;;;;1.80;1.70;;;22.30;99.90;;;;;;5032001;28;20230;-73
2023/07/27 10:07:32;;;;;;;1.65;1.55;;;22.30;99.90;;;;;;5030200;28;20254;-74
2023/07/27 10:10:26;;;;;;;1.55;1.45;;;22.30;99.90;;;;;;5030516;28;20818;-75
2023/07/27 10:12:55;;;;;;;1.90;1.70;;;22.30;99.90;;;;;;5030285;28;20226;-74
2023/07/27 10:15:26;;;;;;;2.28;1.92;;;22.20;99.90;;;;;;5030055;28;20235;-74
2023/07/27 10:17:57;;;;;;;2.05;1.80;;;22.20;99.90;;;;;;5030300;28;20264;-75
2023/07/27 10:20:26;;;;;;;2.83;1.90;;;22.20;99.90;;;;;;5029945;28;20306;-75
2023/07/27 10:23:09;;;;;;;3.00;2.10;;;22.20;99.90;;;;;;5032097;28;20290;-73
2023/07/27 10:26:07;;;;;;;1.92;1.60;;;22.20;99.90;;;;;;5031337;28;20194;-73
2023/07/27 10:28:38;;;;;;;2.78;1.58;;;22.30;99.90;;;;;;4948867;28;20428;-74
2023/07/27 10:31:25;;;;;;;2.38;1.65;;;22.70;99.90;;;;;;5014679;28;20222;-74
2023/07/27 10:33:57;;;;;;;1.90;1.75;;;23.10;99.90;;;;;;5028708;28;20234;-74
2023/07/27 10:36:24;;;;;;;1.52;1.42;;;23.40;99.90;;;;;;5031081;28;20203;-73
2023/07/27 10:38:54;;;;;;;1.83;1.73;;;23.90;99.90;;;;;;5026362;28;20998;-74
2023/07/27 10:41:23;;;;;;;1.95;1.45;;;23.70;99.90;;;;;;5026525;28;20286;-73
2023/07/27 10:44:20;;;;;;;1.95;1.83;;;23.80;99.90;;;;;;5026760;28;20196;-74
2023/07/27 10:46:48;;;;;;;1.90;1.70;;;23.60;99.90;;;;;;5029445;28;20203;-74
2023/07/27 10:49:17;;;;;;;1.60;1.50;;;23.70;99.90;;;;;;5028852;28;20281;-73
2023/07/27 10:51:46;;;;;;;1.65;1.50;;;23.80;99.90;;;;;;5029537;28;20262;-73
2023/07/27 10:54:15;;;;;;;1.50;1.40;;;23.80;99.90;;;;;;5028781;28;20210;-72
2023/07/27 10:56:44;;;;;;;1.45;1.35;;;23.80;99.90;;;;;;5031916;28;20207;-73
2023/07/27 10:59:15;;;;;;;3.80;1.65;;;24.20;99.90;;;;;;5031255;28;20284;-75
2023/07/27 11:01:43;;;;;;;1.98;1.67;;;24.70;99.90;;;;;;5027093;28;20267;-72
2023/07/27 11:04:11;;;;;;;1.90;1.80;;;25.00;99.90;;;;;;5027075;28;20239;-73
2023/07/27 11:06:45;;;;;;;1.70;1.60;;;25.20;99.90;;;;;;5028163;28;20199;-73
2023/07/27 11:09:15;;;;;;;1.67;1.58;;;25.00;99.90;;;;;;5029986;28;20241;-72
2023/07/27 11:11:43;;;;;;;1.60;1.50;;;24.90;99.90;;;;;;5028952;28;20315;-72
2023/07/27 11:14:10;;;;;;;1.67;1.58;;;24.80;99.90;;;;;;5028789;28;20911;-75
2023/07/27 11:16:40;;;;;;;1.50;1.38;;;24.70;99.90;;;;;;5029617;28;20191;-74
2023/07/27 11:19:10;;;;;;;1.92;1.50;;;24.80;99.90;;;;;;5029887;28;20267;-72
2023/07/27 11:21:41;;;;;;;1.50;1.40;;;24.80;99.90;;;;;;5028325;28;20765;-72
2023/07/27 11:24:09;;;;;;;1.58;1.48;;;24.70;99.90;;;;;;5030532;28;20269;-74
2023/07/27 11:26:38;;;;;;;1.67;1.58;;;25.00;99.90;;;;;;5029655;28;20846;-73
2023/07/27 11:29:06;;;;;;;1.67;1.58;;;25.40;99.90;;;;;;5030066;28;20599;-73
2023/07/27 11:31:33;;;;;;;1.60;1.45;;;25.50;99.90;;;;;;5030001;28;20219;-75
2023/07/27 11:34:02;;;;;;;1.60;1.50;;;25.40;99.90;;;;;;5026854;28;20276;-74
2023/07/27 11:36:30;;;;;;;1.48;1.38;;;25.50;99.90;;;;;;5028630;28;20266;-73
2023/07/27 11:38:58;;;;;;;1.55;1.45;;;25.40;99.90;;;;;;5030916;28;20216;-72
2023/07/27 11:41:27;;;;;;;1.23;1.20;;;25.30;99.90;;;;;;5022178;28;20289;-73
2023/07/27 11:43:57;;;;;;;1.67;1.58;;;25.30;99.90;;;;;;5028718;28;20243;-73
2023/07/27 11:46:26;;;;;;;1.60;1.50;;;25.30;99.90;;;;;;5026026;28;20674;-74
2023/07/27 11:48:56;;;;;;;1.58;1.40;;;25.40;99.90;;;;;;5025386;28;20711;-76
2023/07/27 11:51:24;;;;;;;1.45;1.35;;;25.40;99.90;;;;;;5027185;28;20493;-73
2023/07/27 11:53:51;;;;;;;1.58;1.48;;;25.40;99.90;;;;;;5021282;28;20256;-75
2023/07/27 11:56:18;;;;;;;2.55;1.60;;;25.20;99.90;;;;;;5033049;28;20348;-75
2023/07/27 11:58:46;;;;;;;2.80;1.75;;;25.30;99.90;;;;;;5031118;28;20214;-74
2023/07/27 12:01:14;;;;;;;1.40;1.30;;;25.40;99.90;;;;;;5030137;28;20299;-74
2023/07/27 12:03:41;;;;;;;1.73;1.30;;;25.70;99.90;;;;;;5029015;28;20934;-74
2023/07/27 12:06:08;;;;;;;1.58;1.40;;;25.70;99.90;;;;;;5031938;28;20195;-75
2023/07/27 12:08:39;;;;;;;1.40;1.30;;;25.70;99.90;;;;;;5030755;28;20284;-75
2023/07/27 12:11:09;;;;;;;1.52;1.42;;;25.60;99.90;;;;;;5030081;28;20253;-73
2023/07/27 12:13:36;;;;;;;2.15;1.50;;;25.60;99.90;;;;;;5030757;28;20205;-74
2023/07/27 12:16:07;;;;;;;2.13;1.33;;;25.60;99.90;;;;;;5033012;28;20230;-74
2023/07/27 12:18:35;;;;;;;1.20;1.10;;;25.50;99.90;;;;;;5027192;28;20921;-75
2023/07/27 12:21:02;;;;;;;1.70;1.40;;;25.40;99.90;;;;;;5027331;28;20301;-74
2023/07/27 12:23:29;;;;;;;1.25;1.15;;;25.40;99.90;;;;;;5026242;28;20262;-74
2023/07/27 12:25:56;;;;;;;1.40;1.30;;;25.50;99.90;;;;;;5032544;28;20203;-75
2023/07/27 12:28:23;;;;;;;3.17;1.30;;;25.60;99.90;;;;;;5024889;28;20241;-74
2023/07/27 12:30:50;;;;;;;1.73;1.30;;;25.70;99.90;;;;;;5029926;28;20231;-75
2023/07/27 12:33:20;;;;;;;3.40;1.45;;;25.50;99.90;;;;;;5025396;28;20286;-75
2023/07/27 12:35:50;;;;;;;1.58;1.48;;;25.50;99.90;;;;;;5029887;28;20190;-75
2023/07/27 12:38:17;;;;;;;1.40;1.20;;;25.50;99.90;;;;;;5029630;28;20293;-75
2023/07/27 12:40:44;;;;;;;2.25;1.38;;;25.60;99.90;;;;;;5029773;28;20272;-73
2023/07/27 12:43:12;;;;;;;1.55;1.42;;;25.70;99.90;;;;;;5026342;28;20206;-74
2023/07/27 12:45:39;;;;;;;1.65;1.55;;;25.70;99.90;;;;;;5028806;28;20238;-74
2023/07/27 12:48:06;;;;;;;1.35;1.25;;;25.70;99.90;;;;;;5030953;28;22064;-72
2023/07/27 12:50:33;;;;;;;1.85;1.48;;;25.80;99.90;;;;;;5031315;28;20226;-75
2023/07/27 12:53:02;;;;;;;1.30;1.20;;;25.70;99.90;;;;;;5032955;28;20284;-73
2023/07/27 12:55:29;;;;;;;2.05;1.60;;;25.60;99.90;;;;;;5027937;28;20195;-76